Hovedside
METAR-TAF:

METAR-TAF

Lufthavner :

Bergen, Norge

Bergen lufthavn. Flesland

breddegrad: 60-17N, lengdegrad: 005-14E, høyde over havet: 5 m

Gjeldene værobservasjon

Denne rapporten ble laget for 32 minutter siden, klokken 20:50 UTC
Vind 3 kt fra Sørøst
Temperatur 1°C
Luftfuktighet 69%
Trykk 1036 hPa
Sikt 10 km eller mer
Få skyer i en høyde av 2500 ft
Brutte skyer i en høyde av 3800 ft

METAR: ENBR 242050Z 14003KT 9999 FEW025 BKN038 01/M04 Q1036 RMK WIND 1200FT 18009KT

Tid: 22:22 (21:22 UTC)

Varsel

Varsel gyldig fra 24. klokken 18 UTC til 25. klokken 18 UTC
Vind 6 kt fra Sørøst
Sikt 10 km eller mer
Få skyer i en høyde av 3000 ft
Brutte skyer i en høyde av 5000 ft
Sannsynlighet 30% :
Midlertidig
fra 24. klokken 21 UTC til 25. klokken 18 UTC
Sikt: 2500 m
i en høyde av 1400 ft
lette snøbyger

TAF: ENBR 2418/2518 14006KT 9999 FEW030 BKN050 PROB30 TEMPO 2421/2518 2500 -SHSN VV014

Værobservasjoner og værvarsel for over 4000 flyplasser (METAR- og TAF-rapporter).

Tilgjengelige stasjoner er representert av de røde og gule prikkene på kartet.

Hold musepekeren over prikken for å se navnet på stasjonen.

Klikk så for å se værobservasjoner og -varsler.

For å forandre kartet kan du klikke på den grønne knappen med svart kryss for å zoome inn, på den grønne knappen med strek for å zoome ut, eller på de grønne pilene for å se tilstøtende kart.


METAR-TAF: